Lindoeste, Brazil
Current Conditions -  °F | °C
As of 4:15 AM on Thursday 29 Jan 2015 (Local Time) from SBCA Reporting Station
Drizzle Drizzle  
Wind Chill: 64°   Ceiling: 300
Heat Index: 64°   Visibility: 4mi
Dew Point: 61°   Wind: 23mph
Humidity: 88%   Direction: 10°N
Pressure: 29.91"   Gusts: NA
Location:  25.26°S, 53.58°W
Report Text: SBCA 290615Z 01020KT 6000 -DZ BKN003 18/16 Q1013
Loading
Personal Weather Stations






























Interactive Weather Map New forecast layout! Learn more

10-Day Weather Forecast

Advertisements
Track Severe Weather on mobile